DAL227 KATL-KLAX
Flight info
| Callsign | DAL227 |
|---|---|
| Flight time | 5h 3m |
| Altitude | 38000 |
| Route | NASSA2 YAALL J14 PNH ACH/N0478F400 ABQ J78 DRK GABBL HLYWD1 |
| Aircraft | A339/H-SADE1E2E3GHIJ3J5M1P2RWXY/LB2D1 |
Departure
| Time | 2026-05-06 02:05 |
|---|---|
| Airport | Hartsfield Jackson Atlanta International Airport (KATL) |
Arrival
| Time | 2026-05-06 07:08 |
|---|---|
| Airport | Los Angeles International Airport (KLAX) |
| Time | Latitude | Longitude | Altitude | Speed | Heading |
|---|---|---|---|---|---|
| 2026-05-06 00:47 | 33.63939 | -84.41878 | 1009 ft | 0 kts | 303° |
| 2026-05-06 01:44 | 33.63931 | -84.41862 | 1009 ft | 4 kts | 298° |
| 2026-05-06 01:45 | 33.63920 | -84.41833 | 1009 ft | 4 kts | 287° |
| 2026-05-06 01:45 | 33.63915 | -84.41801 | 1009 ft | 4 kts | 271° |
| 2026-05-06 01:45 | 33.63918 | -84.41771 | 1010 ft | 4 kts | 245° |
| 2026-05-06 01:45 | 33.63933 | -84.41749 | 1010 ft | 4 kts | 191° |
| 2026-05-06 01:46 | 33.63938 | -84.41748 | 1010 ft | 3 kts | 179° |
| 2026-05-06 01:50 | 33.63934 | -84.41748 | 1010 ft | 2 kts | 179° |
| 2026-05-06 01:50 | 33.63917 | -84.41747 | 1010 ft | 3 kts | 178° |
| 2026-05-06 01:50 | 33.63889 | -84.41746 | 1010 ft | 5 kts | 178° |
| 2026-05-06 01:50 | 33.63850 | -84.41744 | 1010 ft | 6 kts | 178° |
| 2026-05-06 01:51 | 33.63802 | -84.41745 | 1010 ft | 8 kts | 181° |
| 2026-05-06 01:51 | 33.63744 | -84.41746 | 1010 ft | 9 kts | 180° |
| 2026-05-06 01:51 | 33.63739 | -84.41746 | 1010 ft | 0 kts | 180° |
| 2026-05-06 01:52 | 33.63733 | -84.41746 | 1010 ft | 2 kts | 180° |
| 2026-05-06 01:52 | 33.63714 | -84.41746 | 1010 ft | 3 kts | 180° |
| 2026-05-06 01:52 | 33.63685 | -84.41750 | 1010 ft | 5 kts | 195° |
| 2026-05-06 01:52 | 33.63660 | -84.41779 | 1009 ft | 5 kts | 237° |
| 2026-05-06 01:53 | 33.63655 | -84.41824 | 1009 ft | 7 kts | 267° |
| 2026-05-06 01:53 | 33.63654 | -84.41885 | 1009 ft | 8 kts | 269° |
| 2026-05-06 01:53 | 33.63653 | -84.41956 | 1009 ft | 9 kts | 270° |
| 2026-05-06 01:53 | 33.63654 | -84.42036 | 1009 ft | 10 kts | 271° |
| 2026-05-06 01:54 | 33.63667 | -84.42117 | 1010 ft | 10 kts | 301° |
| 2026-05-06 01:54 | 33.63729 | -84.42144 | 1009 ft | 10 kts | 355° |
| 2026-05-06 01:54 | 33.63788 | -84.42185 | 1009 ft | 10 kts | 308° |
| 2026-05-06 01:54 | 33.63851 | -84.42235 | 1009 ft | 11 kts | 344° |
| 2026-05-06 01:55 | 33.63934 | -84.42243 | 1009 ft | 13 kts | 0° |
| 2026-05-06 01:55 | 33.64026 | -84.42241 | 1010 ft | 14 kts | 0° |
| 2026-05-06 01:55 | 33.64127 | -84.42241 | 1010 ft | 15 kts | 0° |
| 2026-05-06 01:55 | 33.64238 | -84.42240 | 1009 ft | 16 kts | 2° |
| 2026-05-06 01:56 | 33.64356 | -84.42235 | 1009 ft | 18 kts | 0° |
| 2026-05-06 01:56 | 33.64460 | -84.42235 | 1009 ft | 10 kts | 0° |
| 2026-05-06 01:56 | 33.64508 | -84.42237 | 1009 ft | 10 kts | 358° |
| 2026-05-06 01:56 | 33.64537 | -84.42215 | 1009 ft | 2 kts | 64° |
| 2026-05-06 01:57 | 33.64542 | -84.42150 | 1009 ft | 10 kts | 88° |
| 2026-05-06 01:57 | 33.64543 | -84.42063 | 1009 ft | 11 kts | 89° |
| 2026-05-06 01:57 | 33.64543 | -84.41964 | 1009 ft | 12 kts | 90° |
| 2026-05-06 01:57 | 33.64543 | -84.41857 | 1009 ft | 13 kts | 90° |
| 2026-05-06 01:58 | 33.64543 | -84.41741 | 1010 ft | 14 kts | 89° |
| 2026-05-06 01:58 | 33.64544 | -84.41658 | 1010 ft | 15 kts | 89° |
| 2026-05-06 01:58 | 33.64543 | -84.41482 | 1010 ft | 17 kts | 90° |
| 2026-05-06 01:58 | 33.64543 | -84.41386 | 1010 ft | 17 kts | 90° |
| 2026-05-06 01:59 | 33.64544 | -84.41237 | 1010 ft | 18 kts | 90° |
| 2026-05-06 01:59 | 33.64543 | -84.41030 | 1009 ft | 19 kts | 90° |
| 2026-05-06 01:59 | 33.64542 | -84.40919 | 1009 ft | 20 kts | 91° |
| 2026-05-06 01:59 | 33.64517 | -84.40753 | 1008 ft | 21 kts | 100° |
| 2026-05-06 02:00 | 33.64524 | -84.40597 | 1009 ft | 8 kts | 59° |
| 2026-05-06 02:00 | 33.64555 | -84.40574 | 1008 ft | 8 kts | 14° |
| 2026-05-06 02:00 | 33.64570 | -84.40572 | 1008 ft | 0 kts | 7° |
| 2026-05-06 02:03 | 33.64610 | -84.40568 | 1007 ft | 8 kts | 4° |
| 2026-05-06 02:04 | 33.64662 | -84.40586 | 1007 ft | 8 kts | 324° |
| 2026-05-06 02:04 | 33.64679 | -84.40683 | 1007 ft | 34 kts | 270° |
| 2026-05-06 02:04 | 33.64678 | -84.41332 | 1012 ft | 120 kts | 269° |
| 2026-05-06 02:04 | 33.64690 | -84.42641 | 1109 ft | 186 kts | 270° |
| 2026-05-06 02:05 | 33.64738 | -84.44185 | 2133 ft | 178 kts | 269° |
| 2026-05-06 02:05 | 33.64903 | -84.45622 | 3039 ft | 170 kts | 275° |
| 2026-05-06 02:05 | 33.65226 | -84.46949 | 3852 ft | 166 kts | 280° |
| 2026-05-06 02:05 | 33.65487 | -84.48404 | 4122 ft | 192 kts | 271° |
| 2026-05-06 02:06 | 33.65634 | -84.50094 | 4492 ft | 215 kts | 271° |
| 2026-05-06 02:06 | 33.65835 | -84.51981 | 4803 ft | 239 kts | 274° |
| 2026-05-06 02:06 | 33.66131 | -84.53985 | 4911 ft | 258 kts | 276° |
| 2026-05-06 02:06 | 33.66497 | -84.56145 | 5010 ft | 264 kts | 277° |
| 2026-05-06 02:07 | 33.66881 | -84.58315 | 5359 ft | 263 kts | 277° |
| 2026-05-06 02:07 | 33.67258 | -84.60445 | 6317 ft | 259 kts | 277° |
| 2026-05-06 02:07 | 33.67627 | -84.62551 | 7220 ft | 258 kts | 278° |
| 2026-05-06 02:07 | 33.67991 | -84.64669 | 8055 ft | 260 kts | 278° |
| 2026-05-06 02:08 | 33.68360 | -84.66820 | 8892 ft | 263 kts | 279° |
| 2026-05-06 02:08 | 33.68729 | -84.68963 | 9411 ft | 262 kts | 279° |
| 2026-05-06 02:08 | 33.69102 | -84.71102 | 9724 ft | 268 kts | 279° |
| 2026-05-06 02:08 | 33.69449 | -84.73325 | 9881 ft | 270 kts | 276° |
| 2026-05-06 02:09 | 33.69642 | -84.75555 | 9933 ft | 269 kts | 273° |
| 2026-05-06 02:09 | 33.69754 | -84.77794 | 9953 ft | 267 kts | 271° |
| 2026-05-06 02:09 | 33.69824 | -84.80023 | 9974 ft | 267 kts | 270° |
| 2026-05-06 02:09 | 33.69864 | -84.82256 | 9971 ft | 267 kts | 270° |
| 2026-05-06 02:10 | 33.69886 | -84.84488 | 9976 ft | 267 kts | 269° |
| 2026-05-06 02:10 | 33.69895 | -84.86723 | 9974 ft | 267 kts | 269° |
| 2026-05-06 02:10 | 33.69899 | -84.88967 | 9981 ft | 279 kts | 269° |
| 2026-05-06 02:10 | 33.69896 | -84.91433 | 10009 ft | 311 kts | 269° |
| 2026-05-06 02:11 | 33.69888 | -84.94143 | 10012 ft | 340 kts | 269° |
| 2026-05-06 02:11 | 33.69878 | -84.97048 | 10010 ft | 348 kts | 269° |
| 2026-05-06 02:11 | 33.69869 | -84.99940 | 10129 ft | 348 kts | 269° |
| 2026-05-06 02:11 | 33.69860 | -85.02850 | 10731 ft | 347 kts | 269° |
| 2026-05-06 02:12 | 33.69850 | -85.05762 | 11427 ft | 350 kts | 270° |
| 2026-05-06 02:12 | 33.69841 | -85.08703 | 12124 ft | 353 kts | 270° |
| 2026-05-06 02:12 | 33.69832 | -85.11669 | 12834 ft | 356 kts | 270° |
| 2026-05-06 02:12 | 33.69825 | -85.14659 | 13533 ft | 360 kts | 271° |
| 2026-05-06 02:13 | 33.69823 | -85.17680 | 14206 ft | 363 kts | 271° |
| 2026-05-06 02:13 | 33.69807 | -85.20706 | 14903 ft | 364 kts | 270° |
| 2026-05-06 02:13 | 33.69779 | -85.23762 | 15584 ft | 366 kts | 270° |
| 2026-05-06 02:13 | 33.69745 | -85.26792 | 16282 ft | 368 kts | 270° |
| 2026-05-06 02:14 | 33.69708 | -85.29900 | 17002 ft | 369 kts | 270° |
| 2026-05-06 02:14 | 33.69671 | -85.32993 | 17689 ft | 371 kts | 271° |
| 2026-05-06 02:14 | 33.69632 | -85.36096 | 18372 ft | 373 kts | 271° |
| 2026-05-06 02:14 | 33.69594 | -85.39212 | 18932 ft | 375 kts | 271° |
| 2026-05-06 02:15 | 33.69557 | -85.42362 | 19465 ft | 378 kts | 271° |
| 2026-05-06 02:15 | 33.69520 | -85.45530 | 19976 ft | 381 kts | 271° |
| 2026-05-06 02:15 | 33.69483 | -85.48722 | 20483 ft | 384 kts | 271° |
| 2026-05-06 02:15 | 33.69445 | -85.51940 | 20982 ft | 387 kts | 271° |
| 2026-05-06 02:16 | 33.69406 | -85.55176 | 21470 ft | 390 kts | 271° |
| 2026-05-06 02:16 | 33.69366 | -85.58456 | 21961 ft | 393 kts | 271° |
| 2026-05-06 02:16 | 33.69325 | -85.61723 | 22590 ft | 387 kts | 271° |
| 2026-05-06 02:16 | 33.69283 | -85.64939 | 23333 ft | 384 kts | 271° |
| 2026-05-06 02:17 | 33.69241 | -85.68133 | 23991 ft | 382 kts | 271° |
| 2026-05-06 02:17 | 33.69197 | -85.71282 | 24609 ft | 380 kts | 271° |
| 2026-05-06 02:17 | 33.69151 | -85.74439 | 25253 ft | 377 kts | 271° |
| 2026-05-06 02:17 | 33.69105 | -85.77578 | 25918 ft | 375 kts | 272° |
| 2026-05-06 02:18 | 33.69060 | -85.80697 | 26589 ft | 372 kts | 272° |
| 2026-05-06 02:18 | 33.69016 | -85.83784 | 27275 ft | 369 kts | 272° |
| 2026-05-06 02:18 | 33.68973 | -85.86847 | 27987 ft | 365 kts | 272° |
| 2026-05-06 02:18 | 33.68930 | -85.89882 | 28714 ft | 362 kts | 272° |
| 2026-05-06 02:19 | 33.68888 | -85.92891 | 29441 ft | 359 kts | 272° |
| 2026-05-06 02:19 | 33.68846 | -85.95876 | 30111 ft | 357 kts | 273° |
| 2026-05-06 02:19 | 33.68807 | -85.98854 | 30633 ft | 356 kts | 273° |
| 2026-05-06 02:19 | 33.68850 | -86.01815 | 31179 ft | 354 kts | 276° |
| 2026-05-06 02:20 | 33.69146 | -86.07687 | 32286 ft | 351 kts | 277° |
| 2026-05-06 02:20 | 33.69332 | -86.10609 | 32874 ft | 349 kts | 277° |
| 2026-05-06 02:20 | 33.69530 | -86.13507 | 33463 ft | 345 kts | 277° |
| 2026-05-06 02:21 | 33.69731 | -86.16353 | 34054 ft | 341 kts | 278° |
| 2026-05-06 02:21 | 33.69937 | -86.19178 | 34582 ft | 338 kts | 278° |
| 2026-05-06 02:21 | 33.70146 | -86.21979 | 35119 ft | 336 kts | 278° |
| 2026-05-06 02:21 | 33.70354 | -86.24771 | 35560 ft | 336 kts | 278° |
| 2026-05-06 02:22 | 33.70567 | -86.27580 | 35843 ft | 341 kts | 278° |
| 2026-05-06 02:22 | 33.70786 | -86.30429 | 36102 ft | 345 kts | 278° |
| 2026-05-06 02:22 | 33.71009 | -86.33327 | 36372 ft | 349 kts | 278° |
| 2026-05-06 02:22 | 33.71234 | -86.36247 | 36651 ft | 354 kts | 278° |
| 2026-05-06 02:23 | 33.71462 | -86.39206 | 36932 ft | 358 kts | 278° |
| 2026-05-06 02:23 | 33.71691 | -86.42192 | 37216 ft | 361 kts | 278° |
| 2026-05-06 02:23 | 33.71922 | -86.45216 | 37506 ft | 365 kts | 278° |
| 2026-05-06 02:23 | 33.72154 | -86.48260 | 37766 ft | 368 kts | 277° |
| 2026-05-06 02:24 | 33.72389 | -86.51347 | 37887 ft | 374 kts | 277° |
| 2026-05-06 02:24 | 33.72866 | -86.57630 | 37956 ft | 376 kts | 277° |
| 2026-05-06 02:25 | 33.73328 | -86.63825 | 37973 ft | 368 kts | 277° |
| 2026-05-06 02:25 | 33.73782 | -86.69935 | 37975 ft | 367 kts | 277° |
| 2026-05-06 02:26 | 33.74236 | -86.76064 | 37980 ft | 370 kts | 277° |
| 2026-05-06 02:26 | 33.74691 | -86.82239 | 37968 ft | 370 kts | 277° |
| 2026-05-06 02:27 | 33.75137 | -86.88351 | 37967 ft | 369 kts | 277° |
| 2026-05-06 02:27 | 33.75585 | -86.94505 | 37956 ft | 370 kts | 277° |
| 2026-05-06 02:28 | 33.76029 | -87.00677 | 37947 ft | 371 kts | 277° |
| 2026-05-06 02:28 | 33.76472 | -87.06851 | 37927 ft | 370 kts | 277° |
| 2026-05-06 02:29 | 33.76909 | -87.13007 | 37928 ft | 369 kts | 277° |
| 2026-05-06 02:29 | 33.77344 | -87.19154 | 37923 ft | 370 kts | 276° |
| 2026-05-06 02:30 | 33.77777 | -87.25345 | 37931 ft | 372 kts | 276° |
| 2026-05-06 02:30 | 33.78205 | -87.31500 | 37931 ft | 371 kts | 276° |
| 2026-05-06 02:31 | 33.78631 | -87.37678 | 37934 ft | 370 kts | 276° |
| 2026-05-06 02:31 | 33.79075 | -87.43859 | 37929 ft | 372 kts | 278° |
| 2026-05-06 02:32 | 33.80026 | -87.49968 | 37929 ft | 372 kts | 282° |
| 2026-05-06 02:32 | 33.81168 | -87.56028 | 37920 ft | 370 kts | 283° |
| 2026-05-06 02:33 | 33.82362 | -87.62053 | 37918 ft | 371 kts | 283° |
| 2026-05-06 02:33 | 33.82766 | -87.64058 | 37915 ft | 372 kts | 283° |
| 2026-05-06 02:34 | 33.84818 | -87.74141 | 37896 ft | 371 kts | 283° |
| 2026-05-06 02:34 | 33.86050 | -87.80160 | 37895 ft | 371 kts | 283° |
| 2026-05-06 02:35 | 33.87286 | -87.86194 | 37898 ft | 372 kts | 283° |
| 2026-05-06 02:35 | 33.88518 | -87.92210 | 37897 ft | 372 kts | 283° |
| 2026-05-06 02:36 | 33.89754 | -87.98249 | 37893 ft | 371 kts | 283° |
| 2026-05-06 02:36 | 33.90982 | -88.04266 | 37894 ft | 370 kts | 283° |
| 2026-05-06 02:37 | 33.92212 | -88.10302 | 37900 ft | 371 kts | 283° |
| 2026-05-06 02:37 | 33.93436 | -88.16323 | 37891 ft | 370 kts | 283° |
| 2026-05-06 02:38 | 33.94656 | -88.22343 | 37882 ft | 370 kts | 283° |
| 2026-05-06 02:38 | 33.95863 | -88.28311 | 37885 ft | 362 kts | 283° |
| 2026-05-06 02:39 | 33.96848 | -88.33194 | 37890 ft | 360 kts | 283° |
| 2026-05-06 02:39 | 33.98225 | -88.40043 | 37873 ft | 363 kts | 283° |
| 2026-05-06 02:40 | 33.99219 | -88.44993 | 37875 ft | 364 kts | 282° |
| 2026-05-06 02:40 | 34.00560 | -88.51689 | 37880 ft | 362 kts | 282° |
| 2026-05-06 02:41 | 34.01729 | -88.57548 | 37881 ft | 361 kts | 282° |
| 2026-05-06 02:41 | 34.02897 | -88.63409 | 37887 ft | 362 kts | 282° |
| 2026-05-06 02:42 | 34.04074 | -88.69339 | 37889 ft | 362 kts | 282° |
| 2026-05-06 02:42 | 34.05240 | -88.75231 | 37889 ft | 361 kts | 282° |
| 2026-05-06 02:43 | 34.06405 | -88.81127 | 37890 ft | 361 kts | 282° |
| 2026-05-06 02:43 | 34.07567 | -88.87024 | 37890 ft | 361 kts | 282° |
| 2026-05-06 02:44 | 34.08724 | -88.92919 | 37886 ft | 361 kts | 282° |
| 2026-05-06 02:44 | 34.09878 | -88.98808 | 37886 ft | 360 kts | 282° |
| 2026-05-06 02:45 | 34.11031 | -89.04708 | 37884 ft | 361 kts | 282° |
| 2026-05-06 02:45 | 34.12179 | -89.10601 | 37877 ft | 361 kts | 282° |
| 2026-05-06 02:46 | 34.13323 | -89.16487 | 37876 ft | 360 kts | 282° |
| 2026-05-06 02:46 | 34.14455 | -89.22333 | 37873 ft | 360 kts | 282° |
| 2026-05-06 02:47 | 34.15595 | -89.28233 | 37872 ft | 361 kts | 282° |
| 2026-05-06 02:47 | 34.16730 | -89.34126 | 37880 ft | 361 kts | 282° |
| 2026-05-06 02:48 | 34.17865 | -89.40036 | 37879 ft | 360 kts | 282° |
| 2026-05-06 02:48 | 34.18994 | -89.45932 | 37883 ft | 360 kts | 282° |
| 2026-05-06 02:49 | 34.20208 | -89.51799 | 37885 ft | 361 kts | 283° |
| 2026-05-06 02:49 | 34.21560 | -89.57653 | 37885 ft | 362 kts | 284° |
| 2026-05-06 02:50 | 34.22951 | -89.63495 | 37886 ft | 361 kts | 284° |
| 2026-05-06 02:50 | 34.24354 | -89.69322 | 37884 ft | 361 kts | 284° |
| 2026-05-06 02:51 | 34.25752 | -89.75115 | 37860 ft | 361 kts | 284° |
| 2026-05-06 02:51 | 34.27155 | -89.80940 | 37860 ft | 361 kts | 284° |
| 2026-05-06 02:52 | 34.28559 | -89.86775 | 37859 ft | 361 kts | 284° |
| 2026-05-06 02:52 | 34.29722 | -89.91617 | 37863 ft | 360 kts | 284° |
| 2026-05-06 02:53 | 34.31117 | -89.97438 | 37862 ft | 360 kts | 284° |
| 2026-05-06 02:53 | 34.32507 | -90.03263 | 37859 ft | 361 kts | 284° |
| 2026-05-06 02:54 | 34.33899 | -90.09100 | 37854 ft | 361 kts | 284° |
| 2026-05-06 02:54 | 34.35288 | -90.14922 | 37848 ft | 360 kts | 284° |
| 2026-05-06 02:55 | 34.36672 | -90.20738 | 37836 ft | 360 kts | 284° |
| 2026-05-06 02:55 | 34.38058 | -90.26579 | 37849 ft | 361 kts | 284° |
| 2026-05-06 02:56 | 34.39441 | -90.32425 | 37854 ft | 361 kts | 283° |
| 2026-05-06 02:56 | 34.40816 | -90.38255 | 37858 ft | 360 kts | 283° |
| 2026-05-06 02:57 | 34.42190 | -90.44095 | 37859 ft | 360 kts | 283° |
| 2026-05-06 02:57 | 34.43563 | -90.49944 | 37862 ft | 361 kts | 283° |
| 2026-05-06 02:58 | 34.44927 | -90.55766 | 37857 ft | 361 kts | 283° |
| 2026-05-06 02:58 | 34.46293 | -90.61608 | 37852 ft | 360 kts | 283° |
| 2026-05-06 02:59 | 34.47657 | -90.67453 | 37847 ft | 360 kts | 283° |
| 2026-05-06 02:59 | 34.49018 | -90.73314 | 37833 ft | 361 kts | 283° |
| 2026-05-06 03:00 | 34.50376 | -90.79166 | 37822 ft | 361 kts | 283° |
| 2026-05-06 03:00 | 34.51730 | -90.85017 | 37811 ft | 360 kts | 283° |
| 2026-05-06 03:01 | 34.53077 | -90.90853 | 37809 ft | 359 kts | 283° |
| 2026-05-06 03:01 | 34.54422 | -90.96688 | 37810 ft | 360 kts | 283° |
| 2026-05-06 03:02 | 34.55767 | -91.02545 | 37802 ft | 360 kts | 283° |
| 2026-05-06 03:02 | 34.57109 | -91.08400 | 37799 ft | 359 kts | 283° |
| 2026-05-06 03:03 | 34.58442 | -91.14228 | 37793 ft | 359 kts | 282° |
| 2026-05-06 03:03 | 34.59776 | -91.20075 | 37802 ft | 360 kts | 282° |
| 2026-05-06 03:04 | 34.61107 | -91.25929 | 37807 ft | 359 kts | 282° |
| 2026-05-06 03:04 | 34.62434 | -91.31775 | 37814 ft | 358 kts | 282° |
| 2026-05-06 03:05 | 34.63748 | -91.37571 | 37822 ft | 359 kts | 282° |
| 2026-05-06 03:05 | 34.65077 | -91.43453 | 37829 ft | 359 kts | 282° |
| 2026-05-06 03:06 | 34.66388 | -91.49266 | 37831 ft | 358 kts | 282° |
| 2026-05-06 03:06 | 34.67699 | -91.55099 | 37836 ft | 357 kts | 282° |
| 2026-05-06 03:07 | 34.69005 | -91.60918 | 37834 ft | 358 kts | 282° |
| 2026-05-06 03:07 | 34.70313 | -91.66764 | 37829 ft | 358 kts | 282° |
| 2026-05-06 03:08 | 34.71616 | -91.72604 | 37819 ft | 357 kts | 281° |
| 2026-05-06 03:08 | 34.72912 | -91.78431 | 37813 ft | 356 kts | 281° |
| 2026-05-06 03:09 | 34.74204 | -91.84248 | 37806 ft | 356 kts | 281° |
| 2026-05-06 03:09 | 34.75492 | -91.90064 | 37789 ft | 356 kts | 281° |
| 2026-05-06 03:10 | 34.76776 | -91.95875 | 37797 ft | 355 kts | 281° |
| 2026-05-06 03:10 | 34.78056 | -92.01687 | 37801 ft | 354 kts | 281° |
| 2026-05-06 03:11 | 34.79326 | -92.07478 | 37802 ft | 354 kts | 281° |
| 2026-05-06 03:11 | 34.80444 | -92.13302 | 37824 ft | 352 kts | 277° |
| 2026-05-06 03:12 | 34.81172 | -92.19191 | 37833 ft | 351 kts | 275° |
| 2026-05-06 03:12 | 34.81796 | -92.25081 | 37822 ft | 350 kts | 275° |
| 2026-05-06 03:13 | 34.82377 | -92.30977 | 37830 ft | 350 kts | 274° |
| 2026-05-06 03:13 | 34.82936 | -92.36872 | 37833 ft | 351 kts | 274° |
| 2026-05-06 03:14 | 34.83478 | -92.42755 | 37815 ft | 350 kts | 274° |
| 2026-05-06 03:14 | 34.84013 | -92.48652 | 37816 ft | 349 kts | 274° |
| 2026-05-06 03:15 | 34.84539 | -92.54532 | 37806 ft | 350 kts | 274° |
| 2026-05-06 03:15 | 34.85063 | -92.60427 | 37797 ft | 349 kts | 273° |
| 2026-05-06 03:16 | 34.85579 | -92.66300 | 37799 ft | 349 kts | 273° |
| 2026-05-06 03:16 | 34.86093 | -92.72181 | 37796 ft | 349 kts | 273° |
| 2026-05-06 03:17 | 34.86601 | -92.78056 | 37792 ft | 349 kts | 273° |
| 2026-05-06 03:17 | 34.87108 | -92.83946 | 37787 ft | 349 kts | 273° |
| 2026-05-06 03:18 | 34.87610 | -92.89809 | 37781 ft | 348 kts | 273° |
| 2026-05-06 03:18 | 34.88113 | -92.95696 | 37780 ft | 350 kts | 273° |
| 2026-05-06 03:19 | 34.88608 | -93.01544 | 37781 ft | 349 kts | 273° |
| 2026-05-06 03:19 | 34.89103 | -93.07421 | 37776 ft | 348 kts | 272° |
| 2026-05-06 03:20 | 34.89840 | -93.16248 | 37764 ft | 350 kts | 272° |
| 2026-05-06 03:20 | 34.90327 | -93.22139 | 37767 ft | 349 kts | 272° |
| 2026-05-06 03:21 | 34.90812 | -93.28012 | 37763 ft | 348 kts | 272° |
| 2026-05-06 03:21 | 34.91294 | -93.33887 | 37764 ft | 349 kts | 272° |
| 2026-05-06 03:22 | 34.91770 | -93.39744 | 37766 ft | 349 kts | 272° |
| 2026-05-06 03:22 | 34.92246 | -93.45625 | 37767 ft | 348 kts | 272° |
| 2026-05-06 03:23 | 34.92718 | -93.51505 | 37768 ft | 349 kts | 272° |
| 2026-05-06 03:23 | 34.93189 | -93.57397 | 37771 ft | 350 kts | 272° |
| 2026-05-06 03:24 | 34.93657 | -93.63301 | 37772 ft | 349 kts | 272° |
| 2026-05-06 03:24 | 34.94122 | -93.69197 | 37777 ft | 349 kts | 272° |
| 2026-05-06 03:25 | 34.94584 | -93.75092 | 37783 ft | 350 kts | 272° |
| 2026-05-06 03:25 | 34.95044 | -93.80981 | 37779 ft | 349 kts | 271° |
| 2026-05-06 03:26 | 34.95499 | -93.86863 | 37791 ft | 349 kts | 271° |
| 2026-05-06 03:26 | 34.95950 | -93.92751 | 37791 ft | 350 kts | 271° |
| 2026-05-06 03:27 | 34.96402 | -93.98651 | 37801 ft | 349 kts | 271° |
| 2026-05-06 03:27 | 34.96851 | -94.04548 | 37812 ft | 349 kts | 271° |
| 2026-05-06 03:28 | 34.97295 | -94.10438 | 37817 ft | 349 kts | 271° |
| 2026-05-06 03:28 | 34.97738 | -94.16324 | 37819 ft | 349 kts | 271° |
| 2026-05-06 03:29 | 34.98177 | -94.22233 | 37824 ft | 349 kts | 271° |
| 2026-05-06 03:29 | 34.98612 | -94.28118 | 37835 ft | 348 kts | 271° |
| 2026-05-06 03:30 | 34.99044 | -94.33998 | 37855 ft | 350 kts | 271° |
| 2026-05-06 03:30 | 34.99403 | -94.38919 | 37854 ft | 350 kts | 271° |
| 2026-05-06 03:31 | 34.99900 | -94.45771 | 37869 ft | 348 kts | 271° |
| 2026-05-06 03:31 | 35.00324 | -94.51662 | 37868 ft | 348 kts | 271° |
| 2026-05-06 03:32 | 35.00677 | -94.56601 | 37873 ft | 349 kts | 271° |
| 2026-05-06 03:32 | 35.01094 | -94.62473 | 37869 ft | 349 kts | 271° |
| 2026-05-06 03:33 | 35.01692 | -94.68363 | 37867 ft | 350 kts | 273° |
| 2026-05-06 03:33 | 35.02421 | -94.74239 | 37875 ft | 350 kts | 274° |
| 2026-05-06 03:34 | 35.03192 | -94.80116 | 37875 ft | 351 kts | 274° |
| 2026-05-06 03:34 | 35.03979 | -94.85985 | 37876 ft | 350 kts | 274° |
| 2026-05-06 03:35 | 35.04767 | -94.91842 | 37877 ft | 349 kts | 274° |
| 2026-05-06 03:35 | 35.05554 | -94.97694 | 37892 ft | 349 kts | 274° |
| 2026-05-06 03:36 | 35.06334 | -95.03515 | 37895 ft | 350 kts | 274° |
| 2026-05-06 03:36 | 35.07124 | -95.09407 | 37907 ft | 349 kts | 274° |
| 2026-05-06 03:37 | 35.07899 | -95.15214 | 37912 ft | 348 kts | 274° |
| 2026-05-06 03:37 | 35.08681 | -95.21100 | 37902 ft | 350 kts | 274° |
| 2026-05-06 03:38 | 35.09450 | -95.26915 | 37903 ft | 350 kts | 274° |
| 2026-05-06 03:38 | 35.10224 | -95.32792 | 37902 ft | 350 kts | 273° |
| 2026-05-06 03:39 | 35.10993 | -95.38649 | 37903 ft | 349 kts | 273° |
| 2026-05-06 03:39 | 35.11752 | -95.44523 | 37907 ft | 350 kts | 273° |
| 2026-05-06 03:40 | 35.12479 | -95.50395 | 37917 ft | 350 kts | 273° |
| 2026-05-06 03:40 | 35.13190 | -95.56272 | 37919 ft | 349 kts | 272° |
| 2026-05-06 03:41 | 35.13889 | -95.62101 | 37916 ft | 349 kts | 272° |
| 2026-05-06 03:41 | 35.14586 | -95.67972 | 37922 ft | 349 kts | 272° |
| 2026-05-06 03:42 | 35.15280 | -95.73852 | 37918 ft | 350 kts | 272° |
| 2026-05-06 03:42 | 35.15972 | -95.79725 | 37920 ft | 349 kts | 272° |
| 2026-05-06 03:43 | 35.16659 | -95.85592 | 37921 ft | 349 kts | 272° |
| 2026-05-06 03:43 | 35.17344 | -95.91474 | 37925 ft | 349 kts | 272° |
| 2026-05-06 03:44 | 35.18030 | -95.97387 | 37918 ft | 350 kts | 272° |
| 2026-05-06 03:44 | 35.18710 | -96.03278 | 37924 ft | 349 kts | 272° |
| 2026-05-06 03:45 | 35.19381 | -96.09109 | 37921 ft | 349 kts | 272° |
| 2026-05-06 03:45 | 35.20058 | -96.15024 | 37921 ft | 349 kts | 272° |
| 2026-05-06 03:46 | 35.20725 | -96.20876 | 37929 ft | 350 kts | 272° |
| 2026-05-06 03:46 | 35.21402 | -96.26807 | 37934 ft | 349 kts | 272° |
| 2026-05-06 03:47 | 35.22065 | -96.32643 | 37937 ft | 349 kts | 272° |
| 2026-05-06 03:47 | 35.22731 | -96.38532 | 37941 ft | 349 kts | 272° |
| 2026-05-06 03:48 | 35.23391 | -96.44418 | 37954 ft | 350 kts | 272° |
| 2026-05-06 03:48 | 35.24051 | -96.50303 | 37963 ft | 349 kts | 272° |
| 2026-05-06 03:49 | 35.24706 | -96.56190 | 37961 ft | 349 kts | 272° |
| 2026-05-06 03:49 | 35.25359 | -96.62088 | 37961 ft | 350 kts | 271° |
| 2026-05-06 03:50 | 35.26009 | -96.67990 | 37958 ft | 350 kts | 271° |
| 2026-05-06 03:50 | 35.26656 | -96.73872 | 37981 ft | 349 kts | 271° |
| 2026-05-06 03:51 | 35.27301 | -96.79774 | 37961 ft | 349 kts | 271° |
| 2026-05-06 03:51 | 35.27940 | -96.85667 | 37981 ft | 350 kts | 271° |
| 2026-05-06 03:52 | 35.28580 | -96.91578 | 37981 ft | 350 kts | 271° |
| 2026-05-06 03:52 | 35.29216 | -96.97470 | 37982 ft | 349 kts | 271° |
| 2026-05-06 03:53 | 35.29848 | -97.03357 | 37981 ft | 349 kts | 271° |
| 2026-05-06 03:53 | 35.30479 | -97.09273 | 37973 ft | 350 kts | 271° |
| 2026-05-06 03:54 | 35.31106 | -97.15178 | 37956 ft | 350 kts | 271° |
| 2026-05-06 03:54 | 35.31731 | -97.21077 | 37937 ft | 349 kts | 271° |
| 2026-05-06 03:55 | 35.32352 | -97.26984 | 37942 ft | 349 kts | 271° |
| 2026-05-06 03:55 | 35.32971 | -97.32894 | 37946 ft | 350 kts | 271° |
| 2026-05-06 03:56 | 35.33586 | -97.38801 | 37947 ft | 349 kts | 271° |
| 2026-05-06 03:56 | 35.34198 | -97.44689 | 37944 ft | 348 kts | 271° |
| 2026-05-06 03:57 | 35.34805 | -97.50585 | 37985 ft | 349 kts | 271° |
| 2026-05-06 03:57 | 35.35392 | -97.56444 | 37982 ft | 348 kts | 269° |
| 2026-05-06 03:58 | 35.35602 | -97.62367 | 37983 ft | 345 kts | 266° |
| 2026-05-06 03:58 | 35.35636 | -97.68146 | 37980 ft | 344 kts | 265° |
| 2026-05-06 03:59 | 35.35608 | -97.74089 | 37983 ft | 345 kts | 265° |
| 2026-05-06 03:59 | 35.35550 | -97.80019 | 37982 ft | 345 kts | 265° |
| 2026-05-06 04:00 | 35.35454 | -97.85864 | 37994 ft | 345 kts | 264° |
| 2026-05-06 04:00 | 35.35367 | -97.91757 | 37981 ft | 345 kts | 265° |
| 2026-05-06 04:01 | 35.35295 | -97.97622 | 37985 ft | 344 kts | 265° |
| 2026-05-06 04:01 | 35.35208 | -98.03505 | 37981 ft | 346 kts | 264° |
| 2026-05-06 04:02 | 35.35113 | -98.09401 | 37976 ft | 346 kts | 264° |
| 2026-05-06 04:02 | 35.35013 | -98.15294 | 37968 ft | 345 kts | 264° |
| 2026-05-06 04:03 | 35.34908 | -98.21140 | 37957 ft | 346 kts | 264° |
| 2026-05-06 04:03 | 35.34799 | -98.27070 | 37951 ft | 347 kts | 264° |
| 2026-05-06 04:04 | 35.34687 | -98.32940 | 37940 ft | 347 kts | 264° |
| 2026-05-06 04:04 | 35.34573 | -98.38839 | 37938 ft | 346 kts | 264° |
| 2026-05-06 04:05 | 35.34455 | -98.44733 | 37947 ft | 346 kts | 265° |
| 2026-05-06 04:05 | 35.34334 | -98.50652 | 37964 ft | 348 kts | 264° |
| 2026-05-06 04:06 | 35.34213 | -98.56565 | 37965 ft | 347 kts | 264° |
| 2026-05-06 04:06 | 35.34086 | -98.62476 | 37972 ft | 346 kts | 264° |
| 2026-05-06 04:07 | 35.33956 | -98.68375 | 37971 ft | 347 kts | 264° |
| 2026-05-06 04:07 | 35.33824 | -98.74294 | 37969 ft | 348 kts | 264° |
| 2026-05-06 04:08 | 35.33690 | -98.80208 | 37964 ft | 347 kts | 265° |
| 2026-05-06 04:08 | 35.33551 | -98.86116 | 37958 ft | 347 kts | 264° |
| 2026-05-06 04:09 | 35.33410 | -98.92028 | 37958 ft | 347 kts | 264° |
| 2026-05-06 04:09 | 35.33288 | -98.96947 | 37974 ft | 348 kts | 265° |
| 2026-05-06 04:10 | 35.33142 | -99.02868 | 37986 ft | 347 kts | 265° |
| 2026-05-06 04:10 | 35.32992 | -99.08775 | 37999 ft | 347 kts | 265° |
| 2026-05-06 04:11 | 35.32840 | -99.14670 | 37997 ft | 347 kts | 265° |
| 2026-05-06 04:11 | 35.32683 | -99.20593 | 37998 ft | 347 kts | 265° |
| 2026-05-06 04:12 | 35.32525 | -99.26507 | 37999 ft | 347 kts | 265° |
| 2026-05-06 04:12 | 35.32364 | -99.32414 | 38000 ft | 347 kts | 265° |
| 2026-05-06 04:13 | 35.32202 | -99.38309 | 37988 ft | 346 kts | 265° |
| 2026-05-06 04:13 | 35.32034 | -99.44192 | 37985 ft | 347 kts | 265° |
| 2026-05-06 04:14 | 35.31866 | -99.50071 | 37980 ft | 347 kts | 265° |
| 2026-05-06 04:14 | 35.31693 | -99.55978 | 37973 ft | 346 kts | 265° |
| 2026-05-06 04:15 | 35.31520 | -99.61863 | 37964 ft | 346 kts | 265° |
| 2026-05-06 04:15 | 35.31342 | -99.67737 | 37961 ft | 346 kts | 265° |
| 2026-05-06 04:16 | 35.31161 | -99.73646 | 37945 ft | 347 kts | 265° |
| 2026-05-06 04:16 | 35.30976 | -99.79545 | 37944 ft | 347 kts | 265° |
| 2026-05-06 04:17 | 35.30790 | -99.85435 | 37937 ft | 346 kts | 265° |
| 2026-05-06 04:17 | 35.30601 | -99.91322 | 37940 ft | 346 kts | 265° |
| 2026-05-06 04:18 | 35.30409 | -99.97223 | 37943 ft | 347 kts | 265° |
| 2026-05-06 04:18 | 35.30213 | -100.03136 | 37942 ft | 347 kts | 265° |
| 2026-05-06 04:19 | 35.30015 | -100.09035 | 37941 ft | 346 kts | 265° |
| 2026-05-06 04:19 | 35.29813 | -100.14934 | 37940 ft | 347 kts | 265° |
| 2026-05-06 04:20 | 35.29608 | -100.20844 | 37941 ft | 347 kts | 265° |
| 2026-05-06 04:20 | 35.29402 | -100.26741 | 37939 ft | 347 kts | 265° |
| 2026-05-06 04:21 | 35.29193 | -100.32642 | 37943 ft | 347 kts | 265° |
| 2026-05-06 04:21 | 35.28980 | -100.38539 | 37941 ft | 347 kts | 265° |
| 2026-05-06 04:22 | 35.28766 | -100.44444 | 37935 ft | 347 kts | 265° |
| 2026-05-06 04:23 | 35.28438 | -100.53259 | 37938 ft | 347 kts | 265° |
| 2026-05-06 04:23 | 35.28215 | -100.59155 | 37940 ft | 346 kts | 265° |
| 2026-05-06 04:24 | 35.27991 | -100.65053 | 37938 ft | 347 kts | 265° |
| 2026-05-06 04:24 | 35.27761 | -100.70960 | 37936 ft | 347 kts | 265° |
| 2026-05-06 04:25 | 35.27531 | -100.76851 | 37938 ft | 347 kts | 265° |
| 2026-05-06 04:25 | 35.27296 | -100.82749 | 37938 ft | 347 kts | 265° |
| 2026-05-06 04:26 | 35.27059 | -100.88660 | 37931 ft | 348 kts | 265° |
| 2026-05-06 04:26 | 35.26817 | -100.94587 | 37934 ft | 348 kts | 265° |
| 2026-05-06 04:27 | 35.26575 | -101.00499 | 37935 ft | 347 kts | 265° |
| 2026-05-06 04:27 | 35.26329 | -101.06406 | 37935 ft | 347 kts | 265° |
| 2026-05-06 04:28 | 35.26081 | -101.12313 | 37929 ft | 348 kts | 265° |
| 2026-05-06 04:28 | 35.25828 | -101.18231 | 37933 ft | 348 kts | 265° |
| 2026-05-06 04:29 | 35.25574 | -101.24139 | 37932 ft | 348 kts | 265° |
| 2026-05-06 04:29 | 35.25315 | -101.30050 | 37935 ft | 348 kts | 265° |
| 2026-05-06 04:29 | 35.25204 | -101.32976 | 38036 ft | 348 kts | 263° |
| 2026-05-06 04:30 | 35.25110 | -101.35939 | 37985 ft | 343 kts | 262° |
| 2026-05-06 04:30 | 35.24855 | -101.41711 | 37952 ft | 338 kts | 261° |
| 2026-05-06 04:31 | 35.24574 | -101.47480 | 37968 ft | 341 kts | 261° |
| 2026-05-06 04:31 | 35.24293 | -101.53288 | 37972 ft | 342 kts | 261° |
| 2026-05-06 04:32 | 35.24019 | -101.59089 | 37976 ft | 341 kts | 261° |
| 2026-05-06 04:32 | 35.23747 | -101.64877 | 37973 ft | 341 kts | 261° |
| 2026-05-06 04:33 | 35.23543 | -101.70695 | 37979 ft | 343 kts | 262° |
| 2026-05-06 04:33 | 35.23385 | -101.76482 | 37976 ft | 342 kts | 262° |
| 2026-05-06 04:34 | 35.23237 | -101.82298 | 37986 ft | 341 kts | 262° |
| 2026-05-06 04:34 | 35.23091 | -101.88098 | 37971 ft | 342 kts | 262° |
| 2026-05-06 04:35 | 35.22943 | -101.93917 | 37956 ft | 342 kts | 262° |
| 2026-05-06 04:35 | 35.22795 | -101.99723 | 37948 ft | 342 kts | 262° |
| 2026-05-06 04:36 | 35.22644 | -102.05529 | 37934 ft | 341 kts | 262° |
| 2026-05-06 04:36 | 35.22490 | -102.11334 | 37919 ft | 342 kts | 262° |
| 2026-05-06 04:37 | 35.22333 | -102.17153 | 37910 ft | 342 kts | 262° |
| 2026-05-06 04:37 | 35.22175 | -102.22954 | 37906 ft | 341 kts | 262° |
| 2026-05-06 04:38 | 35.22013 | -102.28757 | 37905 ft | 341 kts | 262° |
| 2026-05-06 04:38 | 35.21851 | -102.34514 | 37903 ft | 341 kts | 262° |
| 2026-05-06 04:39 | 35.21684 | -102.40314 | 37899 ft | 341 kts | 262° |
| 2026-05-06 04:39 | 35.21514 | -102.46117 | 37899 ft | 341 kts | 262° |
| 2026-05-06 04:40 | 35.21342 | -102.51919 | 37893 ft | 341 kts | 261° |
| 2026-05-06 04:40 | 35.21168 | -102.57702 | 37896 ft | 341 kts | 261° |
| 2026-05-06 04:41 | 35.20990 | -102.63504 | 37889 ft | 341 kts | 261° |
| 2026-05-06 04:41 | 35.20809 | -102.69294 | 37891 ft | 341 kts | 261° |
| 2026-05-06 04:42 | 35.20628 | -102.75050 | 37882 ft | 340 kts | 261° |
| 2026-05-06 04:42 | 35.20443 | -102.80829 | 37878 ft | 340 kts | 261° |
| 2026-05-06 04:43 | 35.20255 | -102.86598 | 37875 ft | 340 kts | 261° |
| 2026-05-06 04:43 | 35.20063 | -102.92388 | 37874 ft | 340 kts | 261° |
| 2026-05-06 04:44 | 35.19870 | -102.98114 | 37873 ft | 339 kts | 261° |
| 2026-05-06 04:44 | 35.19673 | -103.03870 | 37869 ft | 339 kts | 261° |
| 2026-05-06 04:45 | 35.19474 | -103.09643 | 37867 ft | 340 kts | 261° |
| 2026-05-06 04:45 | 35.19272 | -103.15425 | 37860 ft | 340 kts | 261° |
| 2026-05-06 04:46 | 35.19069 | -103.21193 | 37868 ft | 340 kts | 261° |
| 2026-05-06 04:46 | 35.18863 | -103.26968 | 37882 ft | 340 kts | 260° |
| 2026-05-06 04:47 | 35.18651 | -103.32765 | 37892 ft | 341 kts | 260° |
| 2026-05-06 04:47 | 35.18437 | -103.38561 | 37909 ft | 341 kts | 260° |
| 2026-05-06 04:48 | 35.18222 | -103.44344 | 37925 ft | 341 kts | 260° |
| 2026-05-06 04:48 | 35.18002 | -103.50146 | 37936 ft | 341 kts | 260° |
| 2026-05-06 04:49 | 35.17781 | -103.55913 | 37933 ft | 342 kts | 260° |
| 2026-05-06 04:49 | 35.17556 | -103.61720 | 37971 ft | 342 kts | 260° |
| 2026-05-06 04:50 | 35.17329 | -103.67508 | 37972 ft | 342 kts | 260° |
| 2026-05-06 04:50 | 35.17097 | -103.73337 | 37964 ft | 343 kts | 260° |
| 2026-05-06 04:51 | 35.16862 | -103.79164 | 37932 ft | 343 kts | 260° |
| 2026-05-06 04:51 | 35.16626 | -103.84990 | 37905 ft | 343 kts | 260° |
| 2026-05-06 04:52 | 35.16385 | -103.90817 | 37880 ft | 344 kts | 260° |
| 2026-05-06 04:52 | 35.16184 | -103.95679 | 37856 ft | 345 kts | 260° |
| 2026-05-06 04:53 | 35.15939 | -104.01531 | 37818 ft | 344 kts | 260° |
| 2026-05-06 04:53 | 35.15691 | -104.07379 | 37811 ft | 344 kts | 259° |
| 2026-05-06 04:54 | 35.15437 | -104.13232 | 37808 ft | 346 kts | 259° |
| 2026-05-06 04:54 | 35.15183 | -104.19107 | 37802 ft | 346 kts | 259° |
| 2026-05-06 04:55 | 35.14923 | -104.24976 | 37802 ft | 346 kts | 259° |
| 2026-05-06 04:55 | 35.14660 | -104.30870 | 37812 ft | 348 kts | 259° |
| 2026-05-06 04:56 | 35.14396 | -104.36751 | 37823 ft | 349 kts | 259° |
| 2026-05-06 04:56 | 35.14128 | -104.42669 | 37837 ft | 349 kts | 259° |
| 2026-05-06 04:57 | 35.13858 | -104.48584 | 37859 ft | 349 kts | 259° |
| 2026-05-06 04:57 | 35.13581 | -104.54523 | 37876 ft | 351 kts | 259° |
| 2026-05-06 04:58 | 35.13301 | -104.60489 | 37882 ft | 351 kts | 259° |
| 2026-05-06 04:58 | 35.13019 | -104.66453 | 37892 ft | 351 kts | 259° |
| 2026-05-06 04:59 | 35.12734 | -104.72415 | 37883 ft | 352 kts | 259° |
| 2026-05-06 04:59 | 35.12444 | -104.78391 | 37872 ft | 353 kts | 259° |
| 2026-05-06 05:00 | 35.12150 | -104.84394 | 37854 ft | 353 kts | 259° |
| 2026-05-06 05:00 | 35.11856 | -104.90378 | 37821 ft | 353 kts | 259° |
| 2026-05-06 05:01 | 35.11555 | -104.96380 | 37812 ft | 355 kts | 259° |
| 2026-05-06 05:01 | 35.11276 | -105.02426 | 37801 ft | 357 kts | 260° |
| 2026-05-06 05:02 | 35.11056 | -105.08482 | 37799 ft | 357 kts | 260° |
| 2026-05-06 05:02 | 35.10852 | -105.14504 | 37803 ft | 358 kts | 260° |
| 2026-05-06 05:03 | 35.10652 | -105.20610 | 37817 ft | 360 kts | 260° |
| 2026-05-06 05:03 | 35.10452 | -105.26723 | 37819 ft | 359 kts | 260° |
| 2026-05-06 05:04 | 35.10251 | -105.32828 | 37828 ft | 360 kts | 260° |
| 2026-05-06 05:04 | 35.10041 | -105.38965 | 37843 ft | 363 kts | 260° |
| 2026-05-06 05:05 | 35.09832 | -105.45099 | 37844 ft | 361 kts | 260° |
| 2026-05-06 05:05 | 35.09622 | -105.51226 | 37859 ft | 361 kts | 260° |
| 2026-05-06 05:06 | 35.09405 | -105.57360 | 37863 ft | 362 kts | 260° |
| 2026-05-06 05:06 | 35.09186 | -105.63508 | 37866 ft | 362 kts | 260° |
| 2026-05-06 05:07 | 35.08966 | -105.69636 | 37873 ft | 361 kts | 260° |
| 2026-05-06 05:07 | 35.08740 | -105.75783 | 37875 ft | 362 kts | 260° |
| 2026-05-06 05:08 | 35.08510 | -105.81940 | 37880 ft | 363 kts | 260° |
| 2026-05-06 05:08 | 35.08280 | -105.88080 | 37884 ft | 364 kts | 260° |
| 2026-05-06 05:09 | 35.08044 | -105.94257 | 37883 ft | 365 kts | 260° |
| 2026-05-06 05:09 | 35.07806 | -106.00449 | 37890 ft | 365 kts | 260° |
| 2026-05-06 05:10 | 35.07563 | -106.06656 | 37882 ft | 366 kts | 260° |
| 2026-05-06 05:10 | 35.07317 | -106.12846 | 37888 ft | 367 kts | 260° |
| 2026-05-06 05:11 | 35.07065 | -106.19116 | 37895 ft | 368 kts | 260° |
| 2026-05-06 05:11 | 35.06814 | -106.25333 | 37930 ft | 367 kts | 260° |
| 2026-05-06 05:12 | 35.06562 | -106.31520 | 37958 ft | 367 kts | 260° |
| 2026-05-06 05:12 | 35.06299 | -106.37754 | 37975 ft | 369 kts | 260° |
| 2026-05-06 05:13 | 35.06037 | -106.44000 | 38009 ft | 367 kts | 260° |
| 2026-05-06 05:13 | 35.05772 | -106.50220 | 38035 ft | 368 kts | 260° |
| 2026-05-06 05:14 | 35.05501 | -106.56456 | 38052 ft | 369 kts | 260° |
| 2026-05-06 05:14 | 35.05226 | -106.62722 | 38036 ft | 369 kts | 260° |
| 2026-05-06 05:15 | 35.04949 | -106.68991 | 38040 ft | 369 kts | 260° |
| 2026-05-06 05:15 | 35.04668 | -106.75248 | 38046 ft | 371 kts | 260° |
| 2026-05-06 05:16 | 35.04431 | -106.81558 | 38046 ft | 373 kts | 261° |
| 2026-05-06 05:16 | 35.04251 | -106.87887 | 38031 ft | 373 kts | 261° |
| 2026-05-06 05:17 | 35.04087 | -106.94209 | 38010 ft | 373 kts | 261° |
| 2026-05-06 05:17 | 35.03923 | -107.00567 | 37975 ft | 375 kts | 261° |
| 2026-05-06 05:18 | 35.03754 | -107.06941 | 37953 ft | 377 kts | 261° |
| 2026-05-06 05:18 | 35.03584 | -107.13339 | 37922 ft | 377 kts | 261° |
| 2026-05-06 05:19 | 35.03414 | -107.19737 | 37902 ft | 378 kts | 261° |
| 2026-05-06 05:19 | 35.03239 | -107.26120 | 37899 ft | 380 kts | 261° |
| 2026-05-06 05:20 | 35.03059 | -107.32572 | 37900 ft | 381 kts | 261° |
| 2026-05-06 05:20 | 35.02879 | -107.39033 | 37902 ft | 380 kts | 261° |
| 2026-05-06 05:21 | 35.02690 | -107.45478 | 37905 ft | 381 kts | 261° |
| 2026-05-06 05:21 | 35.02499 | -107.51982 | 37925 ft | 383 kts | 261° |
| 2026-05-06 05:22 | 35.02305 | -107.58481 | 37961 ft | 383 kts | 261° |
| 2026-05-06 05:22 | 35.02108 | -107.64976 | 37996 ft | 383 kts | 261° |
| 2026-05-06 05:23 | 35.01906 | -107.71499 | 38025 ft | 386 kts | 262° |
| 2026-05-06 05:23 | 35.01598 | -107.81281 | 38050 ft | 386 kts | 262° |
| 2026-05-06 05:24 | 35.01387 | -107.87831 | 38060 ft | 386 kts | 262° |
| 2026-05-06 05:24 | 35.01172 | -107.94391 | 38058 ft | 388 kts | 262° |
| 2026-05-06 05:25 | 35.00951 | -108.00987 | 38046 ft | 389 kts | 262° |
| 2026-05-06 05:25 | 35.00729 | -108.07566 | 38033 ft | 388 kts | 262° |
| 2026-05-06 05:26 | 35.00502 | -108.14148 | 38010 ft | 389 kts | 262° |
| 2026-05-06 05:26 | 35.00272 | -108.20760 | 37995 ft | 391 kts | 262° |
| 2026-05-06 05:27 | 35.00037 | -108.27388 | 37965 ft | 391 kts | 262° |
| 2026-05-06 05:27 | 34.99799 | -108.33990 | 37965 ft | 391 kts | 262° |
| 2026-05-06 05:28 | 34.99557 | -108.40619 | 37967 ft | 392 kts | 262° |
| 2026-05-06 05:28 | 34.99309 | -108.47274 | 37987 ft | 393 kts | 262° |
| 2026-05-06 05:29 | 34.99060 | -108.53925 | 37989 ft | 393 kts | 262° |
| 2026-05-06 05:29 | 34.98805 | -108.60601 | 38008 ft | 394 kts | 262° |
| 2026-05-06 05:30 | 34.98546 | -108.67287 | 38032 ft | 395 kts | 262° |
| 2026-05-06 05:30 | 34.98284 | -108.73969 | 38054 ft | 394 kts | 262° |
| 2026-05-06 05:31 | 34.98019 | -108.80621 | 38066 ft | 395 kts | 262° |
| 2026-05-06 05:31 | 34.97748 | -108.87322 | 38091 ft | 397 kts | 262° |
| 2026-05-06 05:32 | 34.97473 | -108.94058 | 38095 ft | 397 kts | 262° |
| 2026-05-06 05:32 | 34.97195 | -109.00784 | 38084 ft | 397 kts | 262° |
| 2026-05-06 05:33 | 34.96911 | -109.07532 | 38066 ft | 399 kts | 262° |
| 2026-05-06 05:33 | 34.96587 | -109.14315 | 38033 ft | 400 kts | 261° |
| 2026-05-06 05:34 | 34.96181 | -109.21083 | 38004 ft | 400 kts | 261° |
| 2026-05-06 05:34 | 34.95747 | -109.27848 | 37974 ft | 401 kts | 261° |
| 2026-05-06 05:35 | 34.95298 | -109.34635 | 37940 ft | 402 kts | 261° |
| 2026-05-06 05:35 | 34.94841 | -109.41435 | 37934 ft | 404 kts | 261° |
| 2026-05-06 05:36 | 34.94380 | -109.48260 | 37938 ft | 404 kts | 261° |
| 2026-05-06 05:36 | 34.93917 | -109.55049 | 37933 ft | 405 kts | 261° |
| 2026-05-06 05:37 | 34.93447 | -109.61894 | 37932 ft | 406 kts | 261° |
| 2026-05-06 05:37 | 34.92968 | -109.68764 | 37936 ft | 407 kts | 261° |
| 2026-05-06 05:38 | 34.92566 | -109.74499 | 37939 ft | 408 kts | 261° |
| 2026-05-06 05:38 | 34.92080 | -109.81402 | 37940 ft | 409 kts | 261° |
| 2026-05-06 05:39 | 34.91588 | -109.88321 | 37935 ft | 410 kts | 261° |
| 2026-05-06 05:39 | 34.91092 | -109.95254 | 37938 ft | 411 kts | 261° |
| 2026-05-06 05:40 | 34.90590 | -110.02201 | 37941 ft | 413 kts | 261° |
| 2026-05-06 05:40 | 34.90083 | -110.09184 | 37938 ft | 413 kts | 261° |
| 2026-05-06 05:41 | 34.89573 | -110.16156 | 37945 ft | 413 kts | 261° |
| 2026-05-06 05:41 | 34.89057 | -110.23143 | 37944 ft | 415 kts | 262° |
| 2026-05-06 05:42 | 34.88535 | -110.30152 | 37946 ft | 416 kts | 262° |
| 2026-05-06 05:42 | 34.88008 | -110.37187 | 37965 ft | 416 kts | 262° |
| 2026-05-06 05:43 | 34.87479 | -110.44218 | 37990 ft | 417 kts | 262° |
| 2026-05-06 05:43 | 34.86943 | -110.51248 | 38000 ft | 418 kts | 262° |
| 2026-05-06 05:44 | 34.86401 | -110.58271 | 38023 ft | 419 kts | 262° |
| 2026-05-06 05:44 | 34.85851 | -110.65349 | 38028 ft | 419 kts | 262° |
| 2026-05-06 05:45 | 34.85298 | -110.72418 | 38028 ft | 419 kts | 262° |
| 2026-05-06 05:45 | 34.84741 | -110.79496 | 38019 ft | 421 kts | 262° |
| 2026-05-06 05:46 | 34.84179 | -110.86560 | 38010 ft | 422 kts | 262° |
| 2026-05-06 05:46 | 34.83611 | -110.93683 | 37996 ft | 423 kts | 262° |
| 2026-05-06 05:47 | 34.83033 | -111.00859 | 37980 ft | 423 kts | 262° |
| 2026-05-06 05:47 | 34.82457 | -111.07960 | 37965 ft | 424 kts | 262° |
| 2026-05-06 05:48 | 34.81874 | -111.15101 | 37972 ft | 426 kts | 262° |
| 2026-05-06 05:48 | 34.81281 | -111.22308 | 37967 ft | 427 kts | 262° |
| 2026-05-06 05:49 | 34.80687 | -111.29489 | 37969 ft | 427 kts | 262° |
| 2026-05-06 05:49 | 34.80088 | -111.36667 | 37961 ft | 428 kts | 262° |
| 2026-05-06 05:50 | 34.79482 | -111.43884 | 37991 ft | 429 kts | 262° |
| 2026-05-06 05:50 | 34.78870 | -111.51114 | 38015 ft | 429 kts | 262° |
| 2026-05-06 05:51 | 34.78255 | -111.58338 | 38027 ft | 430 kts | 262° |
| 2026-05-06 05:51 | 34.77632 | -111.65581 | 38043 ft | 431 kts | 262° |
| 2026-05-06 05:52 | 34.77005 | -111.72846 | 38058 ft | 432 kts | 262° |
| 2026-05-06 05:52 | 34.76371 | -111.80122 | 38052 ft | 432 kts | 262° |
| 2026-05-06 05:53 | 34.75736 | -111.87353 | 38051 ft | 434 kts | 262° |
| 2026-05-06 05:53 | 34.75087 | -111.94706 | 38030 ft | 435 kts | 262° |
| 2026-05-06 05:54 | 34.74441 | -112.01971 | 38003 ft | 435 kts | 262° |
| 2026-05-06 05:54 | 34.73788 | -112.09272 | 37976 ft | 435 kts | 262° |
| 2026-05-06 05:55 | 34.73126 | -112.16613 | 37996 ft | 437 kts | 262° |
| 2026-05-06 05:55 | 34.72459 | -112.23990 | 38032 ft | 438 kts | 262° |
| 2026-05-06 05:56 | 34.71788 | -112.31350 | 38059 ft | 437 kts | 262° |
| 2026-05-06 05:56 | 34.71113 | -112.38704 | 38066 ft | 438 kts | 262° |
| 2026-05-06 05:57 | 34.70410 | -112.46122 | 38067 ft | 439 kts | 262° |
| 2026-05-06 05:57 | 34.69535 | -112.53378 | 38057 ft | 439 kts | 259° |
| 2026-05-06 05:58 | 34.68414 | -112.60670 | 38030 ft | 439 kts | 258° |
| 2026-05-06 05:58 | 34.67248 | -112.67946 | 38001 ft | 440 kts | 258° |
| 2026-05-06 05:59 | 34.66074 | -112.75252 | 37969 ft | 441 kts | 258° |
| 2026-05-06 05:59 | 34.64903 | -112.82556 | 37941 ft | 440 kts | 258° |
| 2026-05-06 06:00 | 34.63737 | -112.89854 | 37922 ft | 440 kts | 258° |
| 2026-05-06 06:00 | 34.62572 | -112.97160 | 37921 ft | 441 kts | 258° |
| 2026-05-06 06:01 | 34.61407 | -113.04467 | 37922 ft | 441 kts | 258° |
| 2026-05-06 06:01 | 34.60234 | -113.11802 | 37919 ft | 442 kts | 258° |
| 2026-05-06 06:02 | 34.59061 | -113.19126 | 37915 ft | 442 kts | 258° |
| 2026-05-06 06:02 | 34.57885 | -113.26455 | 37914 ft | 442 kts | 258° |
| 2026-05-06 06:03 | 34.56710 | -113.33750 | 37912 ft | 443 kts | 258° |
| 2026-05-06 06:03 | 34.55522 | -113.41103 | 37907 ft | 444 kts | 258° |
| 2026-05-06 06:04 | 34.54328 | -113.48458 | 37904 ft | 444 kts | 258° |
| 2026-05-06 06:04 | 34.53133 | -113.55801 | 37903 ft | 444 kts | 258° |
| 2026-05-06 06:05 | 34.51929 | -113.63169 | 37905 ft | 445 kts | 258° |
| 2026-05-06 06:05 | 34.50722 | -113.70541 | 37903 ft | 446 kts | 258° |
| 2026-05-06 06:06 | 34.49516 | -113.77867 | 37898 ft | 446 kts | 258° |
| 2026-05-06 06:06 | 34.48295 | -113.85253 | 37905 ft | 447 kts | 258° |
| 2026-05-06 06:07 | 34.47069 | -113.92637 | 37901 ft | 447 kts | 258° |
| 2026-05-06 06:07 | 34.45838 | -114.00025 | 37911 ft | 447 kts | 258° |
| 2026-05-06 06:08 | 34.44600 | -114.07429 | 37919 ft | 448 kts | 258° |
| 2026-05-06 06:08 | 34.43359 | -114.14820 | 37933 ft | 448 kts | 258° |
| 2026-05-06 06:09 | 34.42119 | -114.22181 | 37935 ft | 441 kts | 258° |
| 2026-05-06 06:09 | 34.40902 | -114.29370 | 37939 ft | 433 kts | 258° |
| 2026-05-06 06:10 | 34.40294 | -114.32951 | 37798 ft | 437 kts | 258° |
| 2026-05-06 06:10 | 34.39676 | -114.36587 | 37678 ft | 441 kts | 258° |
| 2026-05-06 06:10 | 34.39055 | -114.40227 | 37539 ft | 443 kts | 258° |
| 2026-05-06 06:10 | 34.38430 | -114.43883 | 37405 ft | 443 kts | 258° |
| 2026-05-06 06:11 | 34.37815 | -114.47482 | 37271 ft | 443 kts | 258° |
| 2026-05-06 06:11 | 34.37188 | -114.51137 | 37141 ft | 443 kts | 258° |
| 2026-05-06 06:11 | 34.36562 | -114.54783 | 37012 ft | 444 kts | 258° |
| 2026-05-06 06:11 | 34.35929 | -114.58462 | 36874 ft | 446 kts | 258° |
| 2026-05-06 06:12 | 34.35295 | -114.62136 | 36744 ft | 448 kts | 258° |
| 2026-05-06 06:12 | 34.34656 | -114.65840 | 36610 ft | 449 kts | 258° |
| 2026-05-06 06:12 | 34.34017 | -114.69532 | 36481 ft | 450 kts | 258° |
| 2026-05-06 06:12 | 34.33372 | -114.73255 | 36356 ft | 451 kts | 258° |
| 2026-05-06 06:13 | 34.32728 | -114.76967 | 36235 ft | 452 kts | 258° |
| 2026-05-06 06:13 | 34.32079 | -114.80696 | 36109 ft | 452 kts | 258° |
| 2026-05-06 06:13 | 34.31431 | -114.84415 | 35988 ft | 453 kts | 258° |
| 2026-05-06 06:13 | 34.30777 | -114.88156 | 35864 ft | 455 kts | 258° |
| 2026-05-06 06:14 | 34.30121 | -114.91907 | 35744 ft | 457 kts | 258° |
| 2026-05-06 06:14 | 34.29462 | -114.95670 | 35627 ft | 458 kts | 258° |
| 2026-05-06 06:14 | 34.28800 | -114.99442 | 35507 ft | 459 kts | 258° |
| 2026-05-06 06:14 | 34.28136 | -115.03215 | 35404 ft | 459 kts | 258° |
| 2026-05-06 06:15 | 34.27470 | -115.06996 | 35276 ft | 460 kts | 258° |
| 2026-05-06 06:15 | 34.26799 | -115.10795 | 35058 ft | 464 kts | 258° |
| 2026-05-06 06:15 | 34.26120 | -115.14629 | 34712 ft | 468 kts | 258° |
| 2026-05-06 06:15 | 34.25439 | -115.18463 | 34358 ft | 466 kts | 258° |
| 2026-05-06 06:16 | 34.24762 | -115.22271 | 34017 ft | 463 kts | 258° |
| 2026-05-06 06:16 | 34.24088 | -115.26058 | 33634 ft | 459 kts | 259° |
| 2026-05-06 06:16 | 34.23413 | -115.29828 | 33225 ft | 458 kts | 259° |
| 2026-05-06 06:16 | 34.22737 | -115.33596 | 32839 ft | 459 kts | 259° |
| 2026-05-06 06:17 | 34.22057 | -115.37380 | 32457 ft | 462 kts | 259° |
| 2026-05-06 06:17 | 34.21376 | -115.41172 | 32155 ft | 463 kts | 259° |
| 2026-05-06 06:17 | 34.20694 | -115.44970 | 32041 ft | 462 kts | 259° |
| 2026-05-06 06:17 | 34.20012 | -115.48765 | 31996 ft | 463 kts | 259° |
| 2026-05-06 06:18 | 34.18640 | -115.56414 | 31965 ft | 467 kts | 259° |
| 2026-05-06 06:18 | 34.17258 | -115.64093 | 31962 ft | 468 kts | 259° |
| 2026-05-06 06:19 | 34.16018 | -115.71742 | 31967 ft | 465 kts | 264° |
| 2026-05-06 06:19 | 34.15342 | -115.78243 | 32160 ft | 467 kts | 265° |
| 2026-05-06 06:20 | 34.14990 | -115.82130 | 32765 ft | 466 kts | 266° |
| 2026-05-06 06:20 | 34.14542 | -115.87294 | 32991 ft | 469 kts | 265° |
| 2026-05-06 06:20 | 34.13959 | -115.93832 | 32839 ft | 465 kts | 265° |
| 2026-05-06 06:21 | 34.13598 | -115.97711 | 32544 ft | 469 kts | 265° |
| 2026-05-06 06:21 | 34.13219 | -116.01643 | 32137 ft | 474 kts | 265° |
| 2026-05-06 06:21 | 34.12828 | -116.05604 | 31751 ft | 475 kts | 266° |
| 2026-05-06 06:21 | 34.12433 | -116.09559 | 31349 ft | 475 kts | 266° |
| 2026-05-06 06:22 | 34.12043 | -116.13469 | 30968 ft | 475 kts | 266° |
| 2026-05-06 06:22 | 34.11646 | -116.17426 | 30572 ft | 475 kts | 266° |
| 2026-05-06 06:22 | 34.11249 | -116.21391 | 30201 ft | 477 kts | 267° |
| 2026-05-06 06:22 | 34.10848 | -116.25420 | 29785 ft | 478 kts | 267° |
| 2026-05-06 06:23 | 34.10453 | -116.29342 | 29223 ft | 480 kts | 266° |
| 2026-05-06 06:23 | 34.10039 | -116.33370 | 28544 ft | 477 kts | 266° |
| 2026-05-06 06:23 | 34.09630 | -116.37293 | 27928 ft | 473 kts | 266° |
| 2026-05-06 06:23 | 34.09216 | -116.41215 | 27308 ft | 469 kts | 266° |
| 2026-05-06 06:24 | 34.08803 | -116.45091 | 26745 ft | 464 kts | 266° |
| 2026-05-06 06:24 | 34.08393 | -116.48921 | 26218 ft | 458 kts | 265° |
| 2026-05-06 06:24 | 34.07984 | -116.52717 | 25692 ft | 452 kts | 265° |
| 2026-05-06 06:24 | 34.07587 | -116.56456 | 25208 ft | 446 kts | 266° |
| 2026-05-06 06:25 | 34.07217 | -116.60145 | 24731 ft | 440 kts | 266° |
| 2026-05-06 06:25 | 34.06862 | -116.63795 | 24263 ft | 435 kts | 266° |
| 2026-05-06 06:25 | 34.06188 | -116.70940 | 23300 ft | 425 kts | 266° |
| 2026-05-06 06:26 | 34.05859 | -116.74473 | 22770 ft | 420 kts | 266° |
| 2026-05-06 06:26 | 34.05534 | -116.77958 | 22225 ft | 416 kts | 266° |
| 2026-05-06 06:26 | 34.05209 | -116.81425 | 21698 ft | 413 kts | 266° |
| 2026-05-06 06:26 | 34.04883 | -116.84849 | 21184 ft | 409 kts | 265° |
| 2026-05-06 06:27 | 34.04526 | -116.88233 | 20693 ft | 406 kts | 265° |
| 2026-05-06 06:27 | 34.04143 | -116.91578 | 20159 ft | 403 kts | 264° |
| 2026-05-06 06:27 | 34.03735 | -116.94926 | 19566 ft | 402 kts | 264° |
| 2026-05-06 06:27 | 34.03314 | -116.98252 | 18976 ft | 401 kts | 263° |
| 2026-05-06 06:28 | 34.02895 | -117.01564 | 18432 ft | 399 kts | 264° |
| 2026-05-06 06:28 | 34.02489 | -117.04822 | 17859 ft | 395 kts | 264° |
| 2026-05-06 06:28 | 34.02088 | -117.08084 | 17293 ft | 392 kts | 264° |
| 2026-05-06 06:28 | 34.01694 | -117.11328 | 16756 ft | 388 kts | 264° |
| 2026-05-06 06:29 | 34.01309 | -117.14528 | 16245 ft | 385 kts | 264° |
| 2026-05-06 06:29 | 34.00928 | -117.17710 | 15783 ft | 380 kts | 264° |
| 2026-05-06 06:29 | 34.00556 | -117.20829 | 15442 ft | 373 kts | 264° |
| 2026-05-06 06:29 | 34.00189 | -117.23887 | 15161 ft | 364 kts | 264° |
| 2026-05-06 06:30 | 33.99874 | -117.26870 | 14871 ft | 353 kts | 269° |
| 2026-05-06 06:30 | 34.00183 | -117.29757 | 14403 ft | 345 kts | 289° |
| 2026-05-06 06:30 | 34.00961 | -117.32473 | 13920 ft | 342 kts | 293° |
| 2026-05-06 06:30 | 34.01762 | -117.35166 | 13378 ft | 341 kts | 291° |
| 2026-05-06 06:31 | 34.02435 | -117.37897 | 12845 ft | 340 kts | 288° |
| 2026-05-06 06:31 | 34.02933 | -117.40676 | 12399 ft | 338 kts | 283° |
| 2026-05-06 06:31 | 34.03136 | -117.43457 | 12260 ft | 326 kts | 274° |
| 2026-05-06 06:31 | 34.03086 | -117.46128 | 12257 ft | 311 kts | 270° |
| 2026-05-06 06:32 | 34.02977 | -117.48661 | 12266 ft | 294 kts | 270° |
| 2026-05-06 06:32 | 34.02850 | -117.51016 | 12246 ft | 278 kts | 269° |
| 2026-05-06 06:32 | 34.02733 | -117.53329 | 12243 ft | 271 kts | 270° |
| 2026-05-06 06:32 | 34.02632 | -117.55612 | 12245 ft | 273 kts | 270° |
| 2026-05-06 06:33 | 34.02542 | -117.57819 | 12245 ft | 260 kts | 271° |
| 2026-05-06 06:33 | 34.02462 | -117.60004 | 12252 ft | 260 kts | 271° |
| 2026-05-06 06:33 | 34.02396 | -117.62171 | 12242 ft | 263 kts | 271° |
| 2026-05-06 06:33 | 34.02337 | -117.64376 | 12239 ft | 262 kts | 271° |
| 2026-05-06 06:34 | 34.02281 | -117.66571 | 12255 ft | 262 kts | 271° |
| 2026-05-06 06:34 | 34.02202 | -117.68776 | 11992 ft | 271 kts | 270° |
| 2026-05-06 06:34 | 34.02073 | -117.71058 | 11493 ft | 271 kts | 268° |
| 2026-05-06 06:34 | 34.01898 | -117.73311 | 10970 ft | 268 kts | 267° |
| 2026-05-06 06:35 | 34.01694 | -117.75550 | 10376 ft | 270 kts | 266° |
| 2026-05-06 06:35 | 34.01473 | -117.77798 | 9753 ft | 271 kts | 266° |
| 2026-05-06 06:35 | 34.01246 | -117.80039 | 9090 ft | 268 kts | 265° |
| 2026-05-06 06:35 | 34.01026 | -117.82217 | 8601 ft | 251 kts | 265° |
| 2026-05-06 06:36 | 34.00825 | -117.84222 | 8252 ft | 238 kts | 265° |
| 2026-05-06 06:36 | 34.00629 | -117.86200 | 7878 ft | 236 kts | 265° |
| 2026-05-06 06:36 | 34.00436 | -117.88142 | 7540 ft | 232 kts | 264° |
| 2026-05-06 06:36 | 34.00251 | -117.90058 | 7256 ft | 227 kts | 265° |
| 2026-05-06 06:37 | 34.00088 | -117.91922 | 6999 ft | 222 kts | 265° |
| 2026-05-06 06:37 | 33.99921 | -117.93758 | 6737 ft | 217 kts | 264° |
| 2026-05-06 06:37 | 33.99754 | -117.95547 | 6496 ft | 213 kts | 264° |
| 2026-05-06 06:37 | 33.99586 | -117.97293 | 6278 ft | 208 kts | 264° |
| 2026-05-06 06:38 | 33.99416 | -117.99015 | 6003 ft | 206 kts | 264° |
| 2026-05-06 06:38 | 33.99246 | -118.00702 | 5867 ft | 197 kts | 263° |
| 2026-05-06 06:38 | 33.99078 | -118.02335 | 5870 ft | 197 kts | 263° |
| 2026-05-06 06:38 | 33.98905 | -118.04038 | 5874 ft | 211 kts | 263° |
| 2026-05-06 06:39 | 33.98722 | -118.05785 | 5833 ft | 212 kts | 263° |
| 2026-05-06 06:39 | 33.98534 | -118.07575 | 5489 ft | 216 kts | 263° |
| 2026-05-06 06:39 | 33.98353 | -118.09362 | 5185 ft | 213 kts | 263° |
| 2026-05-06 06:39 | 33.98174 | -118.11123 | 4897 ft | 210 kts | 263° |
| 2026-05-06 06:40 | 33.98002 | -118.12796 | 4602 ft | 196 kts | 263° |
| 2026-05-06 06:40 | 33.97839 | -118.14402 | 4333 ft | 185 kts | 263° |
| 2026-05-06 06:40 | 33.97690 | -118.15878 | 4111 ft | 175 kts | 263° |
| 2026-05-06 06:40 | 33.97545 | -118.17295 | 3886 ft | 167 kts | 263° |
| 2026-05-06 06:41 | 33.97406 | -118.18656 | 3674 ft | 160 kts | 263° |
| 2026-05-06 06:41 | 33.97274 | -118.19962 | 3476 ft | 155 kts | 263° |
| 2026-05-06 06:41 | 33.97146 | -118.21227 | 3278 ft | 149 kts | 263° |
| 2026-05-06 06:41 | 33.97020 | -118.22461 | 3086 ft | 148 kts | 263° |
| 2026-05-06 06:42 | 33.96892 | -118.23699 | 2885 ft | 149 kts | 262° |
| 2026-05-06 06:42 | 33.96765 | -118.24929 | 2686 ft | 148 kts | 262° |
| 2026-05-06 06:42 | 33.96641 | -118.26161 | 2488 ft | 148 kts | 262° |
| 2026-05-06 06:42 | 33.96516 | -118.27384 | 2291 ft | 148 kts | 262° |
| 2026-05-06 06:43 | 33.96389 | -118.28621 | 2092 ft | 146 kts | 262° |
| 2026-05-06 06:43 | 33.96268 | -118.29820 | 1891 ft | 146 kts | 262° |
| 2026-05-06 06:43 | 33.96142 | -118.31041 | 1684 ft | 146 kts | 262° |
| 2026-05-06 06:43 | 33.96017 | -118.32248 | 1489 ft | 142 kts | 262° |
| 2026-05-06 06:44 | 33.95899 | -118.33386 | 1248 ft | 133 kts | 263° |
| 2026-05-06 06:44 | 33.95778 | -118.34581 | 1098 ft | 165 kts | 263° |
| 2026-05-06 06:44 | 33.95661 | -118.35944 | 1441 ft | 161 kts | 265° |
| 2026-05-06 06:44 | 33.95559 | -118.37363 | 1829 ft | 181 kts | 263° |
| 2026-05-06 06:45 | 33.95338 | -118.38951 | 2188 ft | 203 kts | 259° |
| 2026-05-06 06:45 | 33.95159 | -118.40709 | 2641 ft | 219 kts | 264° |
| 2026-05-06 06:45 | 33.94945 | -118.42551 | 3306 ft | 223 kts | 261° |
| 2026-05-06 06:45 | 33.94692 | -118.44451 | 3833 ft | 236 kts | 261° |
| 2026-05-06 06:46 | 33.94451 | -118.46415 | 4433 ft | 235 kts | 265° |
| 2026-05-06 06:46 | 33.94705 | -118.48364 | 4794 ft | 244 kts | 290° |
| 2026-05-06 06:46 | 33.95665 | -118.50038 | 4968 ft | 245 kts | 316° |
| 2026-05-06 06:46 | 33.96953 | -118.51384 | 5040 ft | 246 kts | 319° |
| 2026-05-06 06:47 | 33.98270 | -118.52701 | 5075 ft | 245 kts | 320° |
| 2026-05-06 06:47 | 33.99673 | -118.53843 | 5086 ft | 244 kts | 337° |
| 2026-05-06 06:47 | 34.01353 | -118.54049 | 5095 ft | 247 kts | 10° |
| 2026-05-06 06:47 | 34.02876 | -118.53137 | 5100 ft | 250 kts | 42° |
| 2026-05-06 06:48 | 34.03836 | -118.51415 | 5101 ft | 249 kts | 66° |
| 2026-05-06 06:48 | 34.04501 | -118.49471 | 5104 ft | 250 kts | 68° |
| 2026-05-06 06:48 | 34.04793 | -118.48576 | 5103 ft | 250 kts | 69° |
| 2026-05-06 06:48 | 34.05351 | -118.46817 | 5099 ft | 250 kts | 69° |
| 2026-05-06 06:49 | 34.05958 | -118.44823 | 5101 ft | 250 kts | 70° |
| 2026-05-06 06:49 | 34.06535 | -118.42875 | 5095 ft | 250 kts | 70° |
| 2026-05-06 06:49 | 34.07113 | -118.40904 | 5099 ft | 250 kts | 70° |
| 2026-05-06 06:49 | 34.07692 | -118.38918 | 5094 ft | 251 kts | 70° |
| 2026-05-06 06:50 | 34.08269 | -118.36936 | 5095 ft | 250 kts | 70° |
| 2026-05-06 06:50 | 34.08844 | -118.34958 | 5097 ft | 249 kts | 70° |
| 2026-05-06 06:50 | 34.09417 | -118.32980 | 5104 ft | 249 kts | 70° |
| 2026-05-06 06:50 | 34.09990 | -118.31009 | 5110 ft | 250 kts | 70° |
| 2026-05-06 06:51 | 34.10537 | -118.29020 | 5108 ft | 250 kts | 74° |
| 2026-05-06 06:51 | 34.10934 | -118.26974 | 5102 ft | 250 kts | 79° |
| 2026-05-06 06:51 | 34.11236 | -118.24904 | 5106 ft | 251 kts | 81° |
| 2026-05-06 06:51 | 34.11515 | -118.22820 | 5108 ft | 251 kts | 81° |
| 2026-05-06 06:52 | 34.11783 | -118.20740 | 5103 ft | 250 kts | 81° |
| 2026-05-06 06:52 | 34.12044 | -118.18669 | 5104 ft | 250 kts | 81° |
| 2026-05-06 06:52 | 34.12306 | -118.16585 | 5100 ft | 251 kts | 81° |
| 2026-05-06 06:52 | 34.12566 | -118.14500 | 5104 ft | 251 kts | 81° |
| 2026-05-06 06:53 | 34.12825 | -118.12413 | 5098 ft | 251 kts | 81° |
| 2026-05-06 06:53 | 34.13079 | -118.10362 | 5094 ft | 250 kts | 82° |
| 2026-05-06 06:53 | 34.13037 | -118.08269 | 5097 ft | 250 kts | 107° |
| 2026-05-06 06:53 | 34.12179 | -118.06454 | 5100 ft | 246 kts | 128° |
| 2026-05-06 06:54 | 34.11242 | -118.04815 | 5101 ft | 229 kts | 123° |
| 2026-05-06 06:54 | 34.10478 | -118.03273 | 5092 ft | 202 kts | 121° |
| 2026-05-06 06:54 | 34.09763 | -118.01795 | 5101 ft | 207 kts | 121° |
| 2026-05-06 06:54 | 34.09029 | -118.00302 | 5103 ft | 206 kts | 121° |
| 2026-05-06 06:55 | 34.08289 | -117.98819 | 5097 ft | 208 kts | 122° |
| 2026-05-06 06:55 | 34.07535 | -117.97326 | 5095 ft | 207 kts | 122° |
| 2026-05-06 06:55 | 34.06786 | -117.95852 | 5096 ft | 207 kts | 122° |
| 2026-05-06 06:55 | 34.06034 | -117.94381 | 5095 ft | 208 kts | 122° |
| 2026-05-06 06:56 | 34.05272 | -117.92893 | 5096 ft | 208 kts | 122° |
| 2026-05-06 06:56 | 34.04513 | -117.91416 | 5091 ft | 208 kts | 122° |
| 2026-05-06 06:56 | 34.03752 | -117.89934 | 5098 ft | 208 kts | 122° |
| 2026-05-06 06:56 | 34.02988 | -117.88448 | 5097 ft | 208 kts | 122° |
| 2026-05-06 06:57 | 34.02164 | -117.87022 | 5094 ft | 208 kts | 125° |
| 2026-05-06 06:57 | 34.01152 | -117.85792 | 5093 ft | 208 kts | 153° |
| 2026-05-06 06:57 | 33.99850 | -117.85537 | 5094 ft | 181 kts | 195° |
| 2026-05-06 06:57 | 33.98856 | -117.86370 | 5106 ft | 181 kts | 239° |
| 2026-05-06 06:58 | 33.98619 | -117.87814 | 5109 ft | 180 kts | 282° |
| 2026-05-06 06:58 | 33.99265 | -117.89061 | 5114 ft | 180 kts | 319° |
| 2026-05-06 06:58 | 34.00091 | -117.90178 | 5095 ft | 181 kts | 294° |
| 2026-05-06 06:58 | 34.00176 | -117.91663 | 5092 ft | 180 kts | 262° |
| 2026-05-06 06:59 | 33.99983 | -117.93148 | 5093 ft | 180 kts | 262° |
| 2026-05-06 06:59 | 33.99816 | -117.94642 | 5097 ft | 180 kts | 263° |
| 2026-05-06 06:59 | 33.99664 | -117.96163 | 5102 ft | 191 kts | 263° |
| 2026-05-06 06:59 | 33.99506 | -117.97753 | 5107 ft | 188 kts | 263° |
| 2026-05-06 07:00 | 33.99351 | -117.99320 | 5106 ft | 190 kts | 263° |
| 2026-05-06 07:00 | 33.99197 | -118.00905 | 5100 ft | 189 kts | 263° |
| 2026-05-06 07:00 | 33.99043 | -118.02476 | 5105 ft | 189 kts | 263° |
| 2026-05-06 07:00 | 33.98890 | -118.04054 | 5113 ft | 190 kts | 263° |
| 2026-05-06 07:01 | 33.98735 | -118.05633 | 5108 ft | 189 kts | 263° |
| 2026-05-06 07:01 | 33.98579 | -118.07204 | 5115 ft | 189 kts | 263° |
| 2026-05-06 07:01 | 33.98424 | -118.08759 | 5116 ft | 189 kts | 263° |
| 2026-05-06 07:01 | 33.98263 | -118.10338 | 5092 ft | 191 kts | 263° |
| 2026-05-06 07:02 | 33.98093 | -118.11936 | 4807 ft | 191 kts | 263° |
| 2026-05-06 07:02 | 33.97931 | -118.13509 | 4521 ft | 188 kts | 263° |
| 2026-05-06 07:02 | 33.97772 | -118.15066 | 4254 ft | 177 kts | 263° |
| 2026-05-06 07:02 | 33.97630 | -118.16461 | 4031 ft | 161 kts | 263° |
| 2026-05-06 07:03 | 33.97501 | -118.17746 | 3833 ft | 151 kts | 263° |
| 2026-05-06 07:03 | 33.97375 | -118.18985 | 3628 ft | 148 kts | 263° |
| 2026-05-06 07:03 | 33.97249 | -118.20214 | 3441 ft | 147 kts | 262° |
| 2026-05-06 07:03 | 33.97123 | -118.21433 | 3247 ft | 147 kts | 262° |
| 2026-05-06 07:04 | 33.96999 | -118.22651 | 3047 ft | 146 kts | 262° |
| 2026-05-06 07:04 | 33.96875 | -118.23866 | 2851 ft | 146 kts | 262° |
| 2026-05-06 07:04 | 33.96752 | -118.25082 | 2652 ft | 147 kts | 262° |
| 2026-05-06 07:04 | 33.96627 | -118.26309 | 2468 ft | 147 kts | 262° |
| 2026-05-06 07:05 | 33.96501 | -118.27525 | 2264 ft | 146 kts | 262° |
| 2026-05-06 07:05 | 33.96378 | -118.28730 | 2065 ft | 144 kts | 262° |
| 2026-05-06 07:05 | 33.96297 | -118.29526 | 1934 ft | 144 kts | 262° |
| 2026-05-06 07:05 | 33.96175 | -118.30723 | 1739 ft | 143 kts | 262° |
| 2026-05-06 07:06 | 33.96014 | -118.32312 | 1474 ft | 142 kts | 262° |
| 2026-05-06 07:06 | 33.95934 | -118.33093 | 1347 ft | 143 kts | 263° |
| 2026-05-06 07:06 | 33.95812 | -118.34280 | 1144 ft | 142 kts | 263° |
| 2026-05-06 07:06 | 33.95691 | -118.35461 | 956 ft | 142 kts | 263° |
| 2026-05-06 07:07 | 33.95573 | -118.36651 | 707 ft | 142 kts | 263° |
| 2026-05-06 07:07 | 33.95464 | -118.37810 | 531 ft | 140 kts | 262° |
| 2026-05-06 07:07 | 33.95348 | -118.38969 | 356 ft | 138 kts | 260° |
| 2026-05-06 07:07 | 33.95225 | -118.40116 | 180 ft | 134 kts | 259° |
| 2026-05-06 07:08 | 33.95111 | -118.41174 | 138 ft | 120 kts | 260° |
| 2026-05-06 07:08 | 33.95024 | -118.42001 | 128 ft | 61 kts | 264° |
| 2026-05-06 07:08 | 33.94981 | -118.42398 | 127 ft | 44 kts | 259° |
| 2026-05-06 07:08 | 33.94865 | -118.42662 | 125 ft | 22 kts | 229° |
| 2026-05-06 07:09 | 33.94856 | -118.42674 | 123 ft | 0 kts | 227° |
| 2026-05-06 07:09 | 33.94853 | -118.42677 | 123 ft | 2 kts | 227° |
| 2026-05-06 07:09 | 33.94836 | -118.42695 | 123 ft | 5 kts | 221° |
| 2026-05-06 07:09 | 33.94771 | -118.42749 | 124 ft | 18 kts | 208° |
| 2026-05-06 07:10 | 33.94719 | -118.42772 | 123 ft | 7 kts | 197° |
| 2026-05-06 07:10 | 33.94673 | -118.42767 | 125 ft | 7 kts | 155° |
| 2026-05-06 07:10 | 33.94623 | -118.42764 | 126 ft | 13 kts | 182° |
| 2026-05-06 07:10 | 33.94504 | -118.42758 | 126 ft | 18 kts | 174° |
| 2026-05-06 07:11 | 33.94373 | -118.42739 | 126 ft | 20 kts | 173° |
| 2026-05-06 07:11 | 33.94229 | -118.42718 | 124 ft | 21 kts | 173° |
| 2026-05-06 07:11 | 33.94089 | -118.42695 | 125 ft | 21 kts | 173° |
| 2026-05-06 07:11 | 33.93941 | -118.42676 | 126 ft | 20 kts | 173° |
| 2026-05-06 07:12 | 33.93843 | -118.42661 | 126 ft | 15 kts | 173° |
| 2026-05-06 07:12 | 33.93738 | -118.42643 | 126 ft | 10 kts | 164° |
| 2026-05-06 07:12 | 33.93728 | -118.42642 | 123 ft | 2 kts | 175° |
| 2026-05-06 07:12 | 33.93727 | -118.42642 | 123 ft | 0 kts | 175° |
| 2026-05-06 07:13 | 33.93720 | -118.42641 | 126 ft | 3 kts | 175° |
| 2026-05-06 07:13 | 33.93707 | -118.42634 | 126 ft | 1 kts | 141° |
| 2026-05-06 07:14 | 33.93700 | -118.42569 | 125 ft | 13 kts | 89° |
| 2026-05-06 07:14 | 33.93710 | -118.42450 | 124 ft | 15 kts | 83° |
| 2026-05-06 07:14 | 33.93724 | -118.42312 | 125 ft | 18 kts | 83° |
| 2026-05-06 07:14 | 33.93740 | -118.42153 | 125 ft | 20 kts | 83° |
| 2026-05-06 07:15 | 33.93747 | -118.42060 | 126 ft | 0 kts | 81° |
| 2026-05-06 07:15 | 33.93747 | -118.42057 | 126 ft | 0 kts | 81° |
| 2026-05-06 07:15 | 33.93749 | -118.42039 | 125 ft | 4 kts | 81° |
| 2026-05-06 07:15 | 33.93755 | -118.41992 | 126 ft | 7 kts | 83° |
| 2026-05-06 07:16 | 33.93763 | -118.41919 | 125 ft | 10 kts | 80° |
| 2026-05-06 07:16 | 33.93780 | -118.41766 | 129 ft | 22 kts | 83° |
| 2026-05-06 07:16 | 33.93801 | -118.41573 | 126 ft | 24 kts | 83° |
| 2026-05-06 07:16 | 33.93822 | -118.41364 | 125 ft | 26 kts | 83° |
| 2026-05-06 07:17 | 33.93846 | -118.41141 | 129 ft | 28 kts | 82° |
| 2026-05-06 07:17 | 33.93868 | -118.40907 | 124 ft | 29 kts | 83° |
| 2026-05-06 07:17 | 33.93890 | -118.40711 | 129 ft | 24 kts | 82° |
| 2026-05-06 07:17 | 33.93906 | -118.40570 | 126 ft | 2 kts | 71° |
| 2026-05-06 07:18 | 33.93917 | -118.40531 | 127 ft | 6 kts | 63° |
| 2026-05-06 07:18 | 33.93946 | -118.40501 | 123 ft | 7 kts | 36° |
| 2026-05-06 07:18 | 33.93968 | -118.40484 | 123 ft | 3 kts | 31° |
| 2026-05-06 07:18 | 33.93969 | -118.40484 | 124 ft | 0 kts | 31° |